Home   Weather   Laghouat   Past weeks
Flag for Algeria

Past Weather in Laghouat, Algeria — Yesterday and Last 2 Weeks

Currently: 52 °F. Clear. (Weather station: Oran / Es Senia, Algeria). See more current weather

Past Weather in Laghouat — Graph

°F

Laghouat Temperature Yesterday

Maximum temperature yesterday: 73 °F (at 1:30 pm)
Minimum temperature yesterday: 52 °F (at 11:30 pm)
Average temperature yesterday: 61 °F

High & Low Weather Summary for the Past Weeks

 TemperatureHumidityPressure
High79 °F (Dec 5, 3:00 pm)100% (Nov 26, 8:00 am)30.39 "Hg (Nov 26, 8:00 am)
Low37 °F (Nov 30, 4:30 am)16% (Nov 27, 3:30 pm)29.74 "Hg (Dec 3, 4:30 am)
Average57 °F72%30.03 "Hg
* Reported Nov 22 9:00 pm — Dec 7 9:00 pm, Laghouat. Weather by CustomWeather, © 2022

Note: Actual official high and low records may vary slightly from our data, if they occured in-between our weather recording intervals... More about our weather records

Laghouat Weather History for the Previous 24 Hours

Scroll right to see more
 ConditionsComfort  
Time TempWeatherWind HumidityBarometerVisibility
9:00 pm
Wed, Dec 7
55 °FClear.No wind82%29.86 "Hg10 mi
8:30 pm57 °FClear.6 mph72%29.86 "Hg10 mi
8:00 pm57 °FClear.3 mph72%29.86 "Hg10 mi
7:30 pm59 °FClear.3 mph72%29.86 "Hg10 mi
7:00 pm59 °FClear.5 mph72%29.86 "Hg10 mi
6:30 pm61 °FClear.6 mph68%29.86 "Hg10 mi
6:00 pm61 °FClear.6 mph68%29.86 "Hg10 mi
5:30 pm64 °FScattered clouds.6 mph64%29.86 "HgN/A
5:00 pm66 °FScattered clouds.7 mph56%29.86 "HgN/A
4:30 pm68 °FScattered clouds.8 mph56%29.86 "HgN/A
4:00 pm70 °FScattered clouds.6 mph46%29.86 "HgN/A
3:30 pm70 °FPartly sunny.6 mph46%29.86 "HgN/A
3:00 pm70 °FPartly sunny.5 mph46%29.86 "HgN/A
2:30 pm68 °FBroken clouds.5 mph53%29.89 "HgN/A
2:00 pm66 °FBroken clouds.5 mph56%29.89 "HgN/A
1:30 pm66 °FPartly sunny.3 mph60%29.92 "HgN/A
1:00 pm63 °FPartly sunny.6 mph68%29.92 "HgN/A
12:00 pm61 °FPartly sunny.3 mph68%29.95 "HgN/A
11:30 am61 °FBroken clouds.No wind72%29.98 "HgN/A
11:00 am59 °FBroken clouds.No wind72%29.98 "HgN/A
10:30 am57 °FBroken clouds.No wind77%29.98 "HgN/A
10:00 am54 °FBroken clouds.2 mph88%29.98 "HgN/A
9:30 am50 °FBroken clouds.2 mph94%29.98 "HgN/A
9:00 am48 °FBroken clouds.No wind94%29.98 "HgN/A
8:30 am43 °FFog.2 mph100%29.98 "HgN/A
8:00 am46 °FSunny.No wind100%29.98 "Hg10 mi
7:30 am45 °FClear.2 mph93%29.98 "Hg5 mi
7:00 am43 °FClear.2 mph100%29.98 "Hg4 mi
6:30 am43 °FClear.2 mph100%29.98 "Hg4 mi
6:00 am46 °FClear.No wind93%29.98 "Hg10 mi
5:30 am48 °FClear.1 mph94%29.98 "Hg10 mi
5:00 am48 °FClear.No wind100%29.98 "Hg10 mi
4:30 am48 °FClear.1 mph100%29.98 "Hg10 mi
4:00 am50 °FClear.3 mph94%30.01 "Hg10 mi
3:30 am46 °FClear.2 mph100%30.01 "Hg10 mi
3:00 am46 °FClear.2 mph100%30.01 "Hg10 mi
2:30 am48 °FClear.1 mph94%30.01 "Hg10 mi
2:00 am50 °FClear.3 mph94%30.01 "Hg10 mi
12:30 am55 °FClear.5 mph88%30.04 "Hg10 mi
12:00 am55 °FClear.7 mph88%30.04 "Hg10 mi
11:30 pm
Tue, Dec 6
52 °FClear.6 mph94%30.04 "Hg10 mi
11:00 pm55 °FClear.6 mph88%30.04 "Hg10 mi
10:30 pm55 °FClear.2 mph82%30.04 "Hg10 mi
10:00 pm55 °FClear.2 mph82%30.04 "Hg10 mi
Weather by CustomWeather, © 2022

See weather overview